Barberton, Ohio
Current Conditions -  °F | °C
As of 2:30 PM on Thursday 27 Nov 2014 (Local Time) from KAKR Reporting Station
Overcast Overcast  
Wind Chill: 23°   Ceiling: 3100
Heat Index: 32°   Visibility: 10mi
Dew Point: 21°   Wind: 12mph
Humidity: 64%   Direction: 290°WNW
Pressure: 30.12"   Gusts: NA
Location:  41.01°N, 81.61°W
Report Text: KAKR 271930Z AUTO 29010KT 10SM OVC031 00/M06 A3012 RMK AO2 T00001061 $
Loading
Personal Weather Stations






























Interactive Weather Map New forecast layout! Learn more

10-Day Weather Forecast

Advertisements
Track Severe Weather on mobile